sensor_id;sensor_type;location;lat;lon;timestamp;temperature;humidity
68450;SHT30;67758;39.572;2.652;2023-05-18T00:01:59;17.06;60.47
68450;SHT30;67758;39.572;2.652;2023-05-18T00:04:25;17.03;60.56
68450;SHT30;67758;39.572;2.652;2023-05-18T00:06:51;17.02;60.91
68450;SHT30;67758;39.572;2.652;2023-05-18T00:09:33;16.96;61.36
68450;SHT30;67758;39.572;2.652;2023-05-18T00:12:00;16.99;61.88
68450;SHT30;67758;39.572;2.652;2023-05-18T00:14:26;17.01;61.81
68450;SHT30;67758;39.572;2.652;2023-05-18T00:16:53;16.96;61.86
68450;SHT30;67758;39.572;2.652;2023-05-18T00:19:22;16.93;62.21
68450;SHT30;67758;39.572;2.652;2023-05-18T00:21:50;16.92;62.08
68450;SHT30;67758;39.572;2.652;2023-05-18T00:24:16;16.91;62.20
68450;SHT30;67758;39.572;2.652;2023-05-18T00:26:45;16.93;62.69
68450;SHT30;67758;39.572;2.652;2023-05-18T00:29:11;16.93;63.18
68450;SHT30;67758;39.572;2.652;2023-05-18T00:31:37;16.86;62.83
68450;SHT30;67758;39.572;2.652;2023-05-18T00:34:04;16.81;63.19
68450;SHT30;67758;39.572;2.652;2023-05-18T00:36:30;16.83;63.21
68450;SHT30;67758;39.572;2.652;2023-05-18T00:38:57;16.89;63.09
68450;SHT30;67758;39.572;2.652;2023-05-18T00:41:24;16.92;63.42
68450;SHT30;67758;39.572;2.652;2023-05-18T00:43:53;16.85;63.47
68450;SHT30;67758;39.572;2.652;2023-05-18T00:46:19;16.83;63.16
68450;SHT30;67758;39.572;2.652;2023-05-18T00:48:45;16.83;62.96
68450;SHT30;67758;39.572;2.652;2023-05-18T00:51:11;16.79;62.98
68450;SHT30;67758;39.572;2.652;2023-05-18T00:53:37;16.82;63.04
68450;SHT30;67758;39.572;2.652;2023-05-18T00:56:03;16.86;61.89
68450;SHT30;67758;39.572;2.652;2023-05-18T00:58:29;16.79;61.41
68450;SHT30;67758;39.572;2.652;2023-05-18T01:00:58;16.81;60.66
68450;SHT30;67758;39.572;2.652;2023-05-18T01:03:27;16.86;60.03
68450;SHT30;67758;39.572;2.652;2023-05-18T01:05:55;16.95;59.06
68450;SHT30;67758;39.572;2.652;2023-05-18T01:08:25;17.01;58.61
68450;SHT30;67758;39.572;2.652;2023-05-18T01:11:20;16.99;58.44
68450;SHT30;67758;39.572;2.652;2023-05-18T01:14:03;17.08;58.25
68450;SHT30;67758;39.572;2.652;2023-05-18T01:16:34;17.26;58.15
68450;SHT30;67758;39.572;2.652;2023-05-18T01:19:39;17.40;56.94
68450;SHT30;67758;39.572;2.652;2023-05-18T01:22:22;17.44;56.72
68450;SHT30;67758;39.572;2.652;2023-05-18T01:25:00;17.51;56.55
68450;SHT30;67758;39.572;2.652;2023-05-18T01:27:30;17.50;56.59
68450;SHT30;67758;39.572;2.652;2023-05-18T01:30:03;17.50;56.72
68450;SHT30;67758;39.572;2.652;2023-05-18T01:32:29;17.50;56.65
68450;SHT30;67758;39.572;2.652;2023-05-18T01:34:55;17.50;56.73
68450;SHT30;67758;39.572;2.652;2023-05-18T01:37:20;17.51;56.48
68450;SHT30;67758;39.572;2.652;2023-05-18T01:39:46;17.53;56.01
68450;SHT30;67758;39.572;2.652;2023-05-18T01:42:16;17.55;55.49
68450;SHT30;67758;39.572;2.652;2023-05-18T01:44:50;17.62;54.43
68450;SHT30;67758;39.572;2.652;2023-05-18T01:47:18;17.67;53.61
68450;SHT30;67758;39.572;2.652;2023-05-18T01:50:00;17.67;53.36
68450;SHT30;67758;39.572;2.652;2023-05-18T01:52:31;17.64;53.40
68450;SHT30;67758;39.572;2.652;2023-05-18T01:55:02;17.57;53.48
68450;SHT30;67758;39.572;2.652;2023-05-18T01:57:30;17.53;53.59
68450;SHT30;67758;39.572;2.652;2023-05-18T01:59:57;17.53;53.84
68450;SHT30;67758;39.572;2.652;2023-05-18T02:02:25;17.57;53.90
68450;SHT30;67758;39.572;2.652;2023-05-18T02:04:51;17.57;54.17
68450;SHT30;67758;39.572;2.652;2023-05-18T02:07:16;17.53;54.28
68450;SHT30;67758;39.572;2.652;2023-05-18T02:09:42;17.49;54.54
68450;SHT30;67758;39.572;2.652;2023-05-18T02:12:11;17.50;54.43
68450;SHT30;67758;39.572;2.652;2023-05-18T02:14:36;17.47;54.57
68450;SHT30;67758;39.572;2.652;2023-05-18T02:17:02;17.40;54.77
68450;SHT30;67758;39.572;2.652;2023-05-18T02:19:28;17.34;54.91
68450;SHT30;67758;39.572;2.652;2023-05-18T02:21:56;17.30;54.87
68450;SHT30;67758;39.572;2.652;2023-05-18T02:24:22;17.32;55.26
68450;SHT30;67758;39.572;2.652;2023-05-18T02:26:51;17.26;55.03
68450;SHT30;67758;39.572;2.652;2023-05-18T02:29:17;17.30;55.82
68450;SHT30;67758;39.572;2.652;2023-05-18T02:31:42;17.27;55.49
68450;SHT30;67758;39.572;2.652;2023-05-18T02:34:08;17.20;54.55
68450;SHT30;67758;39.572;2.652;2023-05-18T02:36:35;17.18;55.15
68450;SHT30;67758;39.572;2.652;2023-05-18T02:39:10;17.19;56.51
68450;SHT30;67758;39.572;2.652;2023-05-18T02:41:36;17.11;56.05
68450;SHT30;67758;39.572;2.652;2023-05-18T02:44:02;17.11;55.03
68450;SHT30;67758;39.572;2.652;2023-05-18T02:46:28;17.11;56.19
68450;SHT30;67758;39.572;2.652;2023-05-18T02:48:54;17.03;55.78
68450;SHT30;67758;39.572;2.652;2023-05-18T02:51:20;17.06;56.51
68450;SHT30;67758;39.572;2.652;2023-05-18T02:53:49;16.98;56.70
68450;SHT30;67758;39.572;2.652;2023-05-18T02:56:15;16.92;56.43
68450;SHT30;67758;39.572;2.652;2023-05-18T02:58:42;16.79;57.04
68450;SHT30;67758;39.572;2.652;2023-05-18T03:01:09;16.71;57.80
68450;SHT30;67758;39.572;2.652;2023-05-18T03:03:37;16.75;57.36
68450;SHT30;67758;39.572;2.652;2023-05-18T03:06:04;16.69;57.43
68450;SHT30;67758;39.572;2.652;2023-05-18T03:08:30;16.72;57.28
68450;SHT30;67758;39.572;2.652;2023-05-18T03:10:59;16.68;57.99
68450;SHT30;67758;39.572;2.652;2023-05-18T03:13:25;16.75;57.50
68450;SHT30;67758;39.572;2.652;2023-05-18T03:15:50;16.88;57.65
68450;SHT30;67758;39.572;2.652;2023-05-18T03:18:17;16.89;57.13
68450;SHT30;67758;39.572;2.652;2023-05-18T03:20:43;16.91;57.44
68450;SHT30;67758;39.572;2.652;2023-05-18T03:23:09;16.98;57.84
68450;SHT30;67758;39.572;2.652;2023-05-18T03:25:35;16.98;57.32
68450;SHT30;67758;39.572;2.652;2023-05-18T03:28:04;16.93;57.44
68450;SHT30;67758;39.572;2.652;2023-05-18T03:30:31;16.91;58.72
68450;SHT30;67758;39.572;2.652;2023-05-18T03:32:58;16.91;57.90
68450;SHT30;67758;39.572;2.652;2023-05-18T03:35:24;16.88;58.59
68450;SHT30;67758;39.572;2.652;2023-05-18T03:37:49;16.88;58.70
68450;SHT30;67758;39.572;2.652;2023-05-18T03:40:15;16.95;57.79
68450;SHT30;67758;39.572;2.652;2023-05-18T03:42:41;16.88;58.40
68450;SHT30;67758;39.572;2.652;2023-05-18T03:45:08;16.93;57.81
68450;SHT30;67758;39.572;2.652;2023-05-18T03:47:35;17.01;58.24
68450;SHT30;67758;39.572;2.652;2023-05-18T03:50:02;16.89;57.94
68450;SHT30;67758;39.572;2.652;2023-05-18T03:52:28;16.81;58.82
68450;SHT30;67758;39.572;2.652;2023-05-18T03:54:54;16.81;59.88
68450;SHT30;67758;39.572;2.652;2023-05-18T03:57:20;16.68;58.92
68450;SHT30;67758;39.572;2.652;2023-05-18T03:59:45;16.71;58.92
68450;SHT30;67758;39.572;2.652;2023-05-18T04:02:11;16.68;59.15
68450;SHT30;67758;39.572;2.652;2023-05-18T04:04:38;16.60;59.79
68450;SHT30;67758;39.572;2.652;2023-05-18T04:07:11;16.61;59.63
68450;SHT30;67758;39.572;2.652;2023-05-18T04:09:37;16.68;59.29
68450;SHT30;67758;39.572;2.652;2023-05-18T04:12:03;16.75;59.66
68450;SHT30;67758;39.572;2.652;2023-05-18T04:14:28;16.73;59.39
68450;SHT30;67758;39.572;2.652;2023-05-18T04:16:57;16.76;60.31
68450;SHT30;67758;39.572;2.652;2023-05-18T04:19:33;16.67;58.79
68450;SHT30;67758;39.572;2.652;2023-05-18T04:21:59;16.60;59.26
68450;SHT30;67758;39.572;2.652;2023-05-18T04:24:25;16.55;59.75
68450;SHT30;67758;39.572;2.652;2023-05-18T04:26:52;16.47;60.44
68450;SHT30;67758;39.572;2.652;2023-05-18T04:29:18;16.35;59.64
68450;SHT30;67758;39.572;2.652;2023-05-18T04:31:43;16.25;59.72
68450;SHT30;67758;39.572;2.652;2023-05-18T04:34:11;16.22;60.98
68450;SHT30;67758;39.572;2.652;2023-05-18T04:36:38;16.17;59.80
68450;SHT30;67758;39.572;2.652;2023-05-18T04:39:08;16.11;59.75
68450;SHT30;67758;39.572;2.652;2023-05-18T04:41:34;16.09;58.98
68450;SHT30;67758;39.572;2.652;2023-05-18T04:43:59;16.18;58.90
68450;SHT30;67758;39.572;2.652;2023-05-18T04:46:26;16.11;59.53
68450;SHT30;67758;39.572;2.652;2023-05-18T04:48:53;16.22;61.06
68450;SHT30;67758;39.572;2.652;2023-05-18T04:51:23;16.14;59.75
68450;SHT30;67758;39.572;2.652;2023-05-18T04:53:49;16.07;60.05
68450;SHT30;67758;39.572;2.652;2023-05-18T04:56:18;16.09;60.27
68450;SHT30;67758;39.572;2.652;2023-05-18T04:58:47;15.99;60.23
68450;SHT30;67758;39.572;2.652;2023-05-18T05:01:14;16.07;59.73
68450;SHT30;67758;39.572;2.652;2023-05-18T05:03:40;16.09;60.30
68450;SHT30;67758;39.572;2.652;2023-05-18T05:06:06;16.18;60.36
68450;SHT30;67758;39.572;2.652;2023-05-18T05:08:32;16.10;59.83
68450;SHT30;67758;39.572;2.652;2023-05-18T05:10:59;16.25;60.26
68450;SHT30;67758;39.572;2.652;2023-05-18T05:13:25;16.25;58.89
68450;SHT30;67758;39.572;2.652;2023-05-18T05:15:51;16.27;59.21
68450;SHT30;67758;39.572;2.652;2023-05-18T05:18:16;16.40;60.08
68450;SHT30;67758;39.572;2.652;2023-05-18T05:20:42;16.45;59.29
68450;SHT30;67758;39.572;2.652;2023-05-18T05:23:08;16.54;59.34
68450;SHT30;67758;39.572;2.652;2023-05-18T05:25:33;16.55;59.12
68450;SHT30;67758;39.572;2.652;2023-05-18T05:27:59;16.61;58.86
68450;SHT30;67758;39.572;2.652;2023-05-18T05:30:25;16.65;58.52
68450;SHT30;67758;39.572;2.652;2023-05-18T05:32:50;16.67;58.05
68450;SHT30;67758;39.572;2.652;2023-05-18T05:35:16;16.68;58.60
68450;SHT30;67758;39.572;2.652;2023-05-18T05:37:41;16.69;58.80
68450;SHT30;67758;39.572;2.652;2023-05-18T05:40:07;16.67;58.05
68450;SHT30;67758;39.572;2.652;2023-05-18T05:42:34;16.69;58.02
68450;SHT30;67758;39.572;2.652;2023-05-18T05:44:59;16.75;57.94
68450;SHT30;67758;39.572;2.652;2023-05-18T05:47:25;16.82;58.41
68450;SHT30;67758;39.572;2.652;2023-05-18T05:49:51;16.82;58.07
68450;SHT30;67758;39.572;2.652;2023-05-18T05:52:16;16.85;57.72
68450;SHT30;67758;39.572;2.652;2023-05-18T05:54:42;16.96;57.85
68450;SHT30;67758;39.572;2.652;2023-05-18T05:57:07;17.09;58.54
68450;SHT30;67758;39.572;2.652;2023-05-18T05:59:33;17.27;57.95
68450;SHT30;67758;39.572;2.652;2023-05-18T06:01:59;17.34;57.29
68450;SHT30;67758;39.572;2.652;2023-05-18T06:04:24;17.50;56.93
68450;SHT30;67758;39.572;2.652;2023-05-18T06:06:50;17.57;56.85
68450;SHT30;67758;39.572;2.652;2023-05-18T06:09:15;17.63;56.97
68450;SHT30;67758;39.572;2.652;2023-05-18T06:11:41;17.59;57.21
68450;SHT30;67758;39.572;2.652;2023-05-18T06:14:07;17.69;56.67
68450;SHT30;67758;39.572;2.652;2023-05-18T06:16:33;17.51;56.66
68450;SHT30;67758;39.572;2.652;2023-05-18T06:18:58;17.57;57.71
68450;SHT30;67758;39.572;2.652;2023-05-18T06:21:24;17.70;58.02
68450;SHT30;67758;39.572;2.652;2023-05-18T06:23:49;17.77;57.44
68450;SHT30;67758;39.572;2.652;2023-05-18T06:26:15;17.88;57.73
68450;SHT30;67758;39.572;2.652;2023-05-18T06:28:41;17.84;56.85
68450;SHT30;67758;39.572;2.652;2023-05-18T06:31:07;17.90;57.30
68450;SHT30;67758;39.572;2.652;2023-05-18T06:33:33;18.05;57.36
68450;SHT30;67758;39.572;2.652;2023-05-18T06:35:58;18.05;57.07
68450;SHT30;67758;39.572;2.652;2023-05-18T06:38:24;18.18;56.99
68450;SHT30;67758;39.572;2.652;2023-05-18T06:40:50;18.18;55.94
68450;SHT30;67758;39.572;2.652;2023-05-18T06:43:16;18.28;56.01
68450;SHT30;67758;39.572;2.652;2023-05-18T06:45:41;18.39;55.89
68450;SHT30;67758;39.572;2.652;2023-05-18T06:48:07;18.48;56.17
68450;SHT30;67758;39.572;2.652;2023-05-18T06:50:32;18.60;55.34
68450;SHT30;67758;39.572;2.652;2023-05-18T06:52:58;18.57;54.71
68450;SHT30;67758;39.572;2.652;2023-05-18T06:55:23;18.69;55.08
68450;SHT30;67758;39.572;2.652;2023-05-18T06:57:49;18.76;54.31
68450;SHT30;67758;39.572;2.652;2023-05-18T07:00:16;18.89;54.60
68450;SHT30;67758;39.572;2.652;2023-05-18T07:02:41;18.85;54.38
68450;SHT30;67758;39.572;2.652;2023-05-18T07:05:08;18.79;54.19
68450;SHT30;67758;39.572;2.652;2023-05-18T07:07:34;18.86;54.12
68450;SHT30;67758;39.572;2.652;2023-05-18T07:10:02;19.04;54.31
68450;SHT30;67758;39.572;2.652;2023-05-18T07:12:28;18.92;54.53
68450;SHT30;67758;39.572;2.652;2023-05-18T07:14:54;18.93;54.63
68450;SHT30;67758;39.572;2.652;2023-05-18T07:17:20;18.97;55.02
68450;SHT30;67758;39.572;2.652;2023-05-18T07:19:46;19.07;54.44
68450;SHT30;67758;39.572;2.652;2023-05-18T07:22:12;19.06;54.31
68450;SHT30;67758;39.572;2.652;2023-05-18T07:24:37;19.20;53.81
68450;SHT30;67758;39.572;2.652;2023-05-18T07:27:04;19.41;53.97
68450;SHT30;67758;39.572;2.652;2023-05-18T07:29:30;19.37;53.54
68450;SHT30;67758;39.572;2.652;2023-05-18T07:31:55;19.28;53.22
68450;SHT30;67758;39.572;2.652;2023-05-18T07:34:22;19.31;53.17
68450;SHT30;67758;39.572;2.652;2023-05-18T07:36:48;19.27;53.28
68450;SHT30;67758;39.572;2.652;2023-05-18T07:39:13;19.23;53.01
68450;SHT30;67758;39.572;2.652;2023-05-18T07:41:46;19.34;53.50
68450;SHT30;67758;39.572;2.652;2023-05-18T07:44:13;19.57;53.34
68450;SHT30;67758;39.572;2.652;2023-05-18T07:46:39;19.44;53.64
68450;SHT30;67758;39.572;2.652;2023-05-18T07:49:05;19.35;53.27
68450;SHT30;67758;39.572;2.652;2023-05-18T07:51:30;19.53;53.32
68450;SHT30;67758;39.572;2.652;2023-05-18T07:53:56;19.50;53.05
68450;SHT30;67758;39.572;2.652;2023-05-18T07:56:22;19.59;52.70
68450;SHT30;67758;39.572;2.652;2023-05-18T07:58:48;19.46;52.63
68450;SHT30;67758;39.572;2.652;2023-05-18T08:01:14;19.40;52.57
68450;SHT30;67758;39.572;2.652;2023-05-18T08:03:41;19.61;52.79
68450;SHT30;67758;39.572;2.652;2023-05-18T08:06:06;19.53;52.58
68450;SHT30;67758;39.572;2.652;2023-05-18T08:08:32;19.57;52.66
68450;SHT30;67758;39.572;2.652;2023-05-18T08:11:02;19.68;52.84
68450;SHT30;67758;39.572;2.652;2023-05-18T08:13:28;19.68;51.28
68450;SHT30;67758;39.572;2.652;2023-05-18T08:15:53;19.75;50.54
68450;SHT30;67758;39.572;2.652;2023-05-18T08:18:19;19.91;49.84
68450;SHT30;67758;39.572;2.652;2023-05-18T08:20:45;20.02;49.04
68450;SHT30;67758;39.572;2.652;2023-05-18T08:23:10;20.08;48.97
68450;SHT30;67758;39.572;2.652;2023-05-18T08:25:36;20.40;48.66
68450;SHT30;67758;39.572;2.652;2023-05-18T08:28:02;20.71;48.30
68450;SHT30;67758;39.572;2.652;2023-05-18T08:30:28;20.94;48.07
68450;SHT30;67758;39.572;2.652;2023-05-18T08:32:53;21.14;47.22
68450;SHT30;67758;39.572;2.652;2023-05-18T08:35:19;21.45;46.76
68450;SHT30;67758;39.572;2.652;2023-05-18T08:37:45;21.42;46.09
68450;SHT30;67758;39.572;2.652;2023-05-18T08:40:11;21.42;45.93
68450;SHT30;67758;39.572;2.652;2023-05-18T08:45:35;21.55;46.34
68450;SHT30;67758;39.572;2.652;2023-05-18T08:48:05;21.82;45.88
68450;SHT30;67758;39.572;2.652;2023-05-18T08:50:32;21.46;45.05
68450;SHT30;67758;39.572;2.652;2023-05-18T08:53:04;21.31;45.31
68450;SHT30;67758;39.572;2.652;2023-05-18T08:55:31;21.32;45.61
68450;SHT30;67758;39.572;2.652;2023-05-18T08:58:03;21.35;45.35
68450;SHT30;67758;39.572;2.652;2023-05-18T09:00:29;21.38;45.62
68450;SHT30;67758;39.572;2.652;2023-05-18T09:02:55;21.30;45.74
68450;SHT30;67758;39.572;2.652;2023-05-18T09:05:22;21.07;46.59
68450;SHT30;67758;39.572;2.652;2023-05-18T09:07:51;21.51;46.49
68450;SHT30;67758;39.572;2.652;2023-05-18T09:10:17;21.52;45.57
68450;SHT30;67758;39.572;2.652;2023-05-18T09:12:44;21.22;45.91
68450;SHT30;67758;39.572;2.652;2023-05-18T09:15:15;21.15;45.77
68450;SHT30;67758;39.572;2.652;2023-05-18T09:17:40;21.18;46.08
68450;SHT30;67758;39.572;2.652;2023-05-18T09:20:07;21.24;46.30
68450;SHT30;67758;39.572;2.652;2023-05-18T09:22:33;21.07;46.67
68450;SHT30;67758;39.572;2.652;2023-05-18T09:25:07;20.94;46.94
68450;SHT30;67758;39.572;2.652;2023-05-18T09:27:33;21.17;46.79
68450;SHT30;67758;39.572;2.652;2023-05-18T09:29:59;21.28;46.75
68450;SHT30;67758;39.572;2.652;2023-05-18T09:32:25;21.56;45.75
68450;SHT30;67758;39.572;2.652;2023-05-18T09:34:52;21.41;45.71
68450;SHT30;67758;39.572;2.652;2023-05-18T09:37:18;21.55;45.55
68450;SHT30;67758;39.572;2.652;2023-05-18T09:39:56;21.48;45.68
68450;SHT30;67758;39.572;2.652;2023-05-18T09:42:26;21.69;45.89
68450;SHT30;67758;39.572;2.652;2023-05-18T09:44:53;22.03;45.44
68450;SHT30;67758;39.572;2.652;2023-05-18T09:47:19;22.02;45.25
68450;SHT30;67758;39.572;2.652;2023-05-18T09:49:45;22.06;44.75
68450;SHT30;67758;39.572;2.652;2023-05-18T09:52:10;22.17;45.13
68450;SHT30;67758;39.572;2.652;2023-05-18T09:54:36;22.03;45.05
68450;SHT30;67758;39.572;2.652;2023-05-18T09:57:02;22.39;44.81
68450;SHT30;67758;39.572;2.652;2023-05-18T09:59:29;22.23;44.44
68450;SHT30;67758;39.572;2.652;2023-05-18T10:01:59;21.99;44.97
68450;SHT30;67758;39.572;2.652;2023-05-18T10:07:01;21.86;45.48
68450;SHT30;67758;39.572;2.652;2023-05-18T10:09:27;21.86;45.67
68450;SHT30;67758;39.572;2.652;2023-05-18T10:11:53;22.00;45.50
68450;SHT30;67758;39.572;2.652;2023-05-18T10:14:24;22.46;45.11
68450;SHT30;67758;39.572;2.652;2023-05-18T10:16:54;22.53;44.49
68450;SHT30;67758;39.572;2.652;2023-05-18T10:19:20;23.19;43.70
68450;SHT30;67758;39.572;2.652;2023-05-18T10:21:47;23.52;42.78
68450;SHT30;67758;39.572;2.652;2023-05-18T10:24:16;23.57;43.16
68450;SHT30;67758;39.572;2.652;2023-05-18T10:26:44;24.62;41.56
68450;SHT30;67758;39.572;2.652;2023-05-18T10:29:11;25.13;40.49
68450;SHT30;67758;39.572;2.652;2023-05-18T10:31:37;25.18;40.05
68450;SHT30;67758;39.572;2.652;2023-05-18T10:34:05;25.64;39.57
68450;SHT30;67758;39.572;2.652;2023-05-18T10:36:32;26.62;38.00
68450;SHT30;67758;39.572;2.652;2023-05-18T10:39:01;25.84;38.99
68450;SHT30;67758;39.572;2.652;2023-05-18T10:41:29;25.73;38.89
68450;SHT30;67758;39.572;2.652;2023-05-18T10:43:57;24.95;39.59
68450;SHT30;67758;39.572;2.652;2023-05-18T10:46:29;23.73;40.70
68450;SHT30;67758;39.572;2.652;2023-05-18T10:48:56;24.54;39.76
68450;SHT30;67758;39.572;2.652;2023-05-18T10:54:27;25.24;38.60
68450;SHT30;67758;39.572;2.652;2023-05-18T10:56:52;24.38;40.06
68450;SHT30;67758;39.572;2.652;2023-05-18T10:59:19;24.68;39.37
68450;SHT30;67758;39.572;2.652;2023-05-18T11:01:49;25.46;37.71
68450;SHT30;67758;39.572;2.652;2023-05-18T11:04:17;26.55;36.43
68450;SHT30;67758;39.572;2.652;2023-05-18T11:06:53;25.75;37.65
68450;SHT30;67758;39.572;2.652;2023-05-18T11:09:21;24.61;39.27
68450;SHT30;67758;39.572;2.652;2023-05-18T11:12:01;24.21;39.73
68450;SHT30;67758;39.572;2.652;2023-05-18T11:14:31;24.99;38.34
68450;SHT30;67758;39.572;2.652;2023-05-18T11:27:59;27.47;34.89
68450;SHT30;67758;39.572;2.652;2023-05-18T11:30:43;27.24;34.79
68450;SHT30;67758;39.572;2.652;2023-05-18T11:33:20;26.49;35.62
68450;SHT30;67758;39.572;2.652;2023-05-18T11:36:08;26.04;37.84
68450;SHT30;67758;39.572;2.652;2023-05-18T11:38:54;25.23;39.17
68450;SHT30;67758;39.572;2.652;2023-05-18T11:41:32;24.59;39.16
68450;SHT30;67758;39.572;2.652;2023-05-18T11:46:39;24.03;42.22
68450;SHT30;67758;39.572;2.652;2023-05-18T11:49:08;23.86;42.16
68450;SHT30;67758;39.572;2.652;2023-05-18T11:52:15;24.00;41.63
68450;SHT30;67758;39.572;2.652;2023-05-18T11:54:54;23.41;42.93
68450;SHT30;67758;39.572;2.652;2023-05-18T11:59:59;23.23;43.87
68450;SHT30;67758;39.572;2.652;2023-05-18T12:02:26;23.14;44.10
68450;SHT30;67758;39.572;2.652;2023-05-18T12:04:57;23.18;44.47
68450;SHT30;67758;39.572;2.652;2023-05-18T12:07:25;22.53;45.07
68450;SHT30;67758;39.572;2.652;2023-05-18T12:09:59;22.48;45.09
68450;SHT30;67758;39.572;2.652;2023-05-18T12:12:26;22.95;44.90
68450;SHT30;67758;39.572;2.652;2023-05-18T12:15:02;22.64;45.23
68450;SHT30;67758;39.572;2.652;2023-05-18T12:17:44;23.35;44.37
68450;SHT30;67758;39.572;2.652;2023-05-18T12:20:13;24.82;40.63
68450;SHT30;67758;39.572;2.652;2023-05-18T12:22:40;25.80;39.83
68450;SHT30;67758;39.572;2.652;2023-05-18T12:25:07;26.87;37.36
68450;SHT30;67758;39.572;2.652;2023-05-18T12:27:37;25.37;39.13
68450;SHT30;67758;39.572;2.652;2023-05-18T12:30:09;26.20;38.18
68450;SHT30;67758;39.572;2.652;2023-05-18T12:32:43;24.45;40.65
68450;SHT30;67758;39.572;2.652;2023-05-18T12:35:09;24.44;41.68
68450;SHT30;67758;39.572;2.652;2023-05-18T12:37:41;23.74;42.04
68450;SHT30;67758;39.572;2.652;2023-05-18T12:40:08;24.81;40.58
68450;SHT30;67758;39.572;2.652;2023-05-18T12:42:34;25.53;38.88
68450;SHT30;67758;39.572;2.652;2023-05-18T12:45:00;26.49;37.52
68450;SHT30;67758;39.572;2.652;2023-05-18T12:47:28;24.76;39.76
68450;SHT30;67758;39.572;2.652;2023-05-18T12:50:00;23.67;41.64
68450;SHT30;67758;39.572;2.652;2023-05-18T12:52:27;24.79;40.80
68450;SHT30;67758;39.572;2.652;2023-05-18T12:54:54;26.02;38.09
68450;SHT30;67758;39.572;2.652;2023-05-18T12:57:23;25.80;38.76
68450;SHT30;67758;39.572;2.652;2023-05-18T12:59:52;25.77;38.71
68450;SHT30;67758;39.572;2.652;2023-05-18T13:02:36;25.80;38.07
68450;SHT30;67758;39.572;2.652;2023-05-18T13:05:06;24.58;40.97
68450;SHT30;67758;39.572;2.652;2023-05-18T13:07:43;23.65;42.52
68450;SHT30;67758;39.572;2.652;2023-05-18T13:10:11;23.26;43.04
68450;SHT30;67758;39.572;2.652;2023-05-18T13:12:49;23.66;42.66
68450;SHT30;67758;39.572;2.652;2023-05-18T13:17:59;23.48;42.73
68450;SHT30;67758;39.572;2.652;2023-05-18T13:21:11;23.74;42.18
68450;SHT30;67758;39.572;2.652;2023-05-18T13:23:20;23.57;42.72
68450;SHT30;67758;39.572;2.652;2023-05-18T13:25:47;24.01;42.66
68450;SHT30;67758;39.572;2.652;2023-05-18T13:28:15;23.35;43.49
68450;SHT30;67758;39.572;2.652;2023-05-18T13:30:42;23.06;43.96
68450;SHT30;67758;39.572;2.652;2023-05-18T13:33:08;23.32;43.98
68450;SHT30;67758;39.572;2.652;2023-05-18T13:35:35;23.57;43.03
68450;SHT30;67758;39.572;2.652;2023-05-18T13:38:02;24.11;41.84
68450;SHT30;67758;39.572;2.652;2023-05-18T13:40:28;23.43;42.96
68450;SHT30;67758;39.572;2.652;2023-05-18T13:42:54;23.18;43.43
68450;SHT30;67758;39.572;2.652;2023-05-18T13:45:19;22.79;44.01
68450;SHT30;67758;39.572;2.652;2023-05-18T13:47:48;22.95;43.83
68450;SHT30;67758;39.572;2.652;2023-05-18T13:50:18;22.41;44.95
68450;SHT30;67758;39.572;2.652;2023-05-18T13:52:44;22.06;45.76
68450;SHT30;67758;39.572;2.652;2023-05-18T13:55:11;21.85;45.88
68450;SHT30;67758;39.572;2.652;2023-05-18T13:57:37;22.04;45.77
68450;SHT30;67758;39.572;2.652;2023-05-18T14:00:03;21.90;46.02
68450;SHT30;67758;39.572;2.652;2023-05-18T14:02:36;22.20;45.85
68450;SHT30;67758;39.572;2.652;2023-05-18T14:05:02;22.17;45.87
68450;SHT30;67758;39.572;2.652;2023-05-18T14:07:28;22.09;46.01
68450;SHT30;67758;39.572;2.652;2023-05-18T14:09:54;22.06;45.97
68450;SHT30;67758;39.572;2.652;2023-05-18T14:12:20;22.27;45.66
68450;SHT30;67758;39.572;2.652;2023-05-18T14:14:45;22.29;45.54
68450;SHT30;67758;39.572;2.652;2023-05-18T14:17:11;22.24;45.38
68450;SHT30;67758;39.572;2.652;2023-05-18T14:19:38;21.67;46.17
68450;SHT30;67758;39.572;2.652;2023-05-18T14:22:04;21.69;46.65
68450;SHT30;67758;39.572;2.652;2023-05-18T14:24:30;21.46;46.74
68450;SHT30;67758;39.572;2.652;2023-05-18T14:26:56;21.28;46.55
68450;SHT30;67758;39.572;2.652;2023-05-18T14:29:21;21.44;46.28
68450;SHT30;67758;39.572;2.652;2023-05-18T14:31:47;21.59;46.42
68450;SHT30;67758;39.572;2.652;2023-05-18T14:34:12;21.49;46.02
68450;SHT30;67758;39.572;2.652;2023-05-18T14:36:38;21.58;46.31
68450;SHT30;67758;39.572;2.652;2023-05-18T14:39:04;21.69;46.01
68450;SHT30;67758;39.572;2.652;2023-05-18T14:41:29;21.59;45.82
68450;SHT30;67758;39.572;2.652;2023-05-18T14:43:55;21.67;46.40
68450;SHT30;67758;39.572;2.652;2023-05-18T14:46:21;21.42;46.35
68450;SHT30;67758;39.572;2.652;2023-05-18T14:48:47;21.53;46.42
68450;SHT30;67758;39.572;2.652;2023-05-18T14:51:12;21.44;46.39
68450;SHT30;67758;39.572;2.652;2023-05-18T14:53:38;21.51;46.62
68450;SHT30;67758;39.572;2.652;2023-05-18T14:56:04;21.46;46.68
68450;SHT30;67758;39.572;2.652;2023-05-18T14:58:33;21.41;46.62
68450;SHT30;67758;39.572;2.652;2023-05-18T15:00:58;21.51;46.43
68450;SHT30;67758;39.572;2.652;2023-05-18T15:03:24;21.59;46.41
68450;SHT30;67758;39.572;2.652;2023-05-18T15:05:49;21.62;46.01
68450;SHT30;67758;39.572;2.652;2023-05-18T15:08:15;21.53;45.89
68450;SHT30;67758;39.572;2.652;2023-05-18T15:10:41;21.41;46.55
68450;SHT30;67758;39.572;2.652;2023-05-18T15:13:09;21.46;46.54
68450;SHT30;67758;39.572;2.652;2023-05-18T15:15:34;21.51;46.38
68450;SHT30;67758;39.572;2.652;2023-05-18T15:18:00;21.61;45.94
68450;SHT30;67758;39.572;2.652;2023-05-18T15:20:26;21.69;45.97
68450;SHT30;67758;39.572;2.652;2023-05-18T15:22:53;21.88;46.13
68450;SHT30;67758;39.572;2.652;2023-05-18T15:25:19;21.97;45.73
68450;SHT30;67758;39.572;2.652;2023-05-18T15:27:45;21.96;45.40
68450;SHT30;67758;39.572;2.652;2023-05-18T15:30:13;21.85;46.02
68450;SHT30;67758;39.572;2.652;2023-05-18T15:32:39;21.53;46.25
68450;SHT30;67758;39.572;2.652;2023-05-18T15:35:07;21.41;46.56
68450;SHT30;67758;39.572;2.652;2023-05-18T15:37:33;21.48;46.46
68450;SHT30;67758;39.572;2.652;2023-05-18T15:39:59;21.67;46.56
68450;SHT30;67758;39.572;2.652;2023-05-18T15:42:24;21.76;46.12
68450;SHT30;67758;39.572;2.652;2023-05-18T15:44:51;22.04;46.18
68450;SHT30;67758;39.572;2.652;2023-05-18T15:47:16;22.55;45.22
68450;SHT30;67758;39.572;2.652;2023-05-18T15:49:42;23.65;42.37
68450;SHT30;67758;39.572;2.652;2023-05-18T15:52:10;24.64;41.17
68450;SHT30;67758;39.572;2.652;2023-05-18T15:54:35;24.25;42.20
68450;SHT30;67758;39.572;2.652;2023-05-18T15:57:01;23.80;42.24
68450;SHT30;67758;39.572;2.652;2023-05-18T15:59:28;23.26;43.73
68450;SHT30;67758;39.572;2.652;2023-05-18T16:01:53;22.60;45.29